createdAt,value
2022-11-03T00:00:01.267Z,128.4
2022-11-03T00:05:01.478Z,129.1
2022-11-03T00:10:02.364Z,129.6
2022-11-03T00:20:01.495Z,130.4
2022-11-03T00:25:01.417Z,123.5
2022-11-03T00:30:06.323Z,124.7
2022-11-03T00:35:01.458Z,127.9
2022-11-03T00:40:01.266Z,128.0
2022-11-03T00:45:02.439Z,127.5
2022-11-03T00:50:06.270Z,125.4
2022-11-03T01:00:01.703Z,125.1
2022-11-03T01:05:01.988Z,123.4
2022-11-03T01:10:01.259Z,124.1
2022-11-03T01:15:06.465Z,125.1
2022-11-03T01:20:01.274Z,125.3
2022-11-03T01:25:01.733Z,124.4
2022-11-03T01:30:01.321Z,125.4
2022-11-03T01:35:01.383Z,126.9
2022-11-03T01:40:01.355Z,128.8
2022-11-03T01:50:01.712Z,126.9
2022-11-03T01:55:02.421Z,126.1
2022-11-03T02:00:01.272Z,123.2
2022-11-03T02:05:01.384Z,119.4
2022-11-03T02:10:01.625Z,114.2
2022-11-03T02:15:01.455Z,112.6
2022-11-03T02:20:01.648Z,111.6
2022-11-03T02:25:01.449Z,109.2
2022-11-03T02:30:01.344Z,106.9
2022-11-03T02:35:06.564Z,105.2
2022-11-03T02:45:01.386Z,104.3
2022-11-03T02:50:01.367Z,103.2
2022-11-03T02:55:01.585Z,103.6
2022-11-03T03:00:01.574Z,104.2
2022-11-03T03:05:01.323Z,103.8
2022-11-03T03:10:01.399Z,102.2
2022-11-03T03:15:01.642Z,100.4
2022-11-03T03:20:01.334Z,97.6
2022-11-03T03:25:01.701Z,93.6
2022-11-03T03:30:01.356Z,88.0
2022-11-03T03:35:01.452Z,84.3
2022-11-03T03:40:01.277Z,80.2
2022-11-03T03:45:06.352Z,76.6
2022-11-03T03:50:01.364Z,72.6
2022-11-03T04:00:01.333Z,71.2
2022-11-03T04:05:01.474Z,78.0
2022-11-03T04:10:01.322Z,76.8
2022-11-03T04:15:01.764Z,74.0
2022-11-03T04:20:01.354Z,74.6
2022-11-03T04:25:01.411Z,74.4
2022-11-03T04:30:01.327Z,68.1
2022-11-03T04:35:01.468Z,69.6
2022-11-03T04:40:01.415Z,72.7
2022-11-03T04:45:01.481Z,75.0
2022-11-03T04:50:01.332Z,75.0
2022-11-03T04:55:02.090Z,72.5
2022-11-03T05:00:01.549Z,70.4
2022-11-03T05:05:01.949Z,67.8
2022-11-03T05:10:02.723Z,63.4
2022-11-03T05:15:01.449Z,68.1
2022-11-03T05:20:01.628Z,68.1
2022-11-03T05:25:01.478Z,68.3
2022-11-03T05:45:01.417Z,62.2
2022-11-03T06:05:01.830Z,67.4
2022-11-03T06:10:01.704Z,68.5
2022-11-03T06:25:02.019Z,68.6
2022-11-03T06:30:01.782Z,72.4
2022-11-03T06:35:02.173Z,71.2
2022-11-03T06:40:01.731Z,72.2
2022-11-03T06:55:01.296Z,74.8
2022-11-03T07:15:01.748Z,63.2
2022-11-03T07:25:01.603Z,63.2
2022-11-03T07:30:01.543Z,63.4
2022-11-03T07:45:01.157Z,62.2
2022-11-03T07:50:00.934Z,62.7
2022-11-03T07:55:01.306Z,63.7
2022-11-03T08:00:07.245Z,62.3
2022-11-03T08:05:01.351Z,60.9
2022-11-03T08:10:01.001Z,59.7
2022-11-03T08:15:01.064Z,58.0
2022-11-03T08:20:02.423Z,56.5
2022-11-03T08:25:01.183Z,56.2
2022-11-03T08:30:00.930Z,56.5
2022-11-03T08:40:01.147Z,61.6
2022-11-03T08:45:01.058Z,63.1
2022-11-03T08:50:00.956Z,64.0
2022-11-03T08:55:01.136Z,62.8
2022-11-03T09:00:00.963Z,62.7
2022-11-03T09:05:01.061Z,58.3
2022-11-03T09:35:01.303Z,62.8
2022-11-03T09:45:01.349Z,63.3
2022-11-03T09:50:01.786Z,65.0
2022-11-03T09:55:01.181Z,69.6
2022-11-03T10:00:01.084Z,73.5
2022-11-03T10:05:06.916Z,80.3
2022-11-03T10:10:00.960Z,80.7
2022-11-03T10:15:01.377Z,79.2
2022-11-03T10:20:01.282Z,73.7
2022-11-03T10:25:01.150Z,69.3
2022-11-03T10:45:01.967Z,64.6
2022-11-03T11:05:01.252Z,64.0
2022-11-03T11:15:01.128Z,61.5
2022-11-03T11:20:01.374Z,64.6
2022-11-03T11:35:01.690Z,57.0
2022-11-03T11:40:01.460Z,56.4
2022-11-03T11:45:01.595Z,56.0
2022-11-03T11:50:01.530Z,55.4
2022-11-03T11:55:01.689Z,54.8
2022-11-03T12:00:01.687Z,54.3
2022-11-03T12:05:01.884Z,67.5
2022-11-03T12:10:06.533Z,68.4
2022-11-03T12:15:01.562Z,70.4
2022-11-03T12:20:01.666Z,72.8
2022-11-03T12:35:01.559Z,61.6
2022-11-03T12:40:01.140Z,64.3
2022-11-03T12:45:02.277Z,63.1
2022-11-03T12:50:01.453Z,70.1
2022-11-03T12:55:01.323Z,68.8
2022-11-03T13:00:01.217Z,69.1
2022-11-03T13:05:01.205Z,69.4
2022-11-03T13:10:06.174Z,70.8
2022-11-03T13:20:01.333Z,67.0
2022-11-03T13:25:01.779Z,66.7
2022-11-03T13:45:01.125Z,63.2
2022-11-03T13:50:20.850Z,66.8
2022-11-03T14:15:01.463Z,70.2
2022-11-03T14:20:05.205Z,69.5
2022-11-03T14:25:10.361Z,71.7
2022-11-03T14:30:01.286Z,73.2
2022-11-03T14:35:03.798Z,74.3
2022-11-03T14:40:01.307Z,76.0
2022-11-03T14:45:02.588Z,78.2
2022-11-03T14:50:06.655Z,78.1
2022-11-03T14:55:02.497Z,77.5
2022-11-03T15:00:01.533Z,77.6
2022-11-03T15:05:01.348Z,77.0
2022-11-03T15:10:01.311Z,74.5
2022-11-03T15:15:01.343Z,73.5
2022-11-03T15:20:01.278Z,74.1
2022-11-03T15:30:02.359Z,77.2
2022-11-03T15:35:01.324Z,79.5
2022-11-03T15:40:06.779Z,80.0
2022-11-03T15:45:01.286Z,79.4
2022-11-03T15:55:01.411Z,74.6
2022-11-03T16:00:01.352Z,72.6
2022-11-03T16:05:01.475Z,70.5
2022-11-03T16:10:02.073Z,69.5
2022-11-03T16:15:06.447Z,68.4
2022-11-03T16:20:01.436Z,68.6
2022-11-03T16:25:01.358Z,69.6
2022-11-03T16:30:01.335Z,70.8
2022-11-03T16:35:01.437Z,70.9
2022-11-03T16:40:01.397Z,73.1
2022-11-03T16:45:01.423Z,74.6
2022-11-03T16:50:01.332Z,76.0
2022-11-03T16:55:01.414Z,78.7
2022-11-03T17:00:01.355Z,80.0
2022-11-03T17:05:01.419Z,78.7
2022-11-03T17:10:01.446Z,76.2
2022-11-03T17:15:02.236Z,73.9
2022-11-03T17:20:01.342Z,72.1
2022-11-03T17:25:01.704Z,77.4
2022-11-03T17:30:01.283Z,75.5
2022-11-03T17:35:01.567Z,73.8
2022-11-03T17:40:01.360Z,72.4
2022-11-03T17:45:02.317Z,70.1
2022-11-03T17:50:01.328Z,61.6
2022-11-03T17:55:01.462Z,61.5
2022-11-03T18:00:01.417Z,62.6
2022-11-03T18:05:01.472Z,63.6
2022-11-03T18:25:01.531Z,62.4
2022-11-03T18:30:01.379Z,68.1
2022-11-03T18:45:03.423Z,89.6
2022-11-03T18:50:02.790Z,89.0
2022-11-03T18:55:03.966Z,80.9
2022-11-03T19:00:01.902Z,76.9
2022-11-03T19:05:01.849Z,75.9
2022-11-03T19:10:02.011Z,70.5
2022-11-03T19:15:02.201Z,66.6
2022-11-03T19:20:01.741Z,68.8
2022-11-03T19:25:01.927Z,71.3
2022-11-03T19:30:01.751Z,69.8
2022-11-03T19:35:02.063Z,73.4
2022-11-03T19:55:01.756Z,95.2
2022-11-03T20:00:06.594Z,99.6
2022-11-03T20:05:01.793Z,106.9
2022-11-03T20:10:01.564Z,108.1
2022-11-03T20:15:06.781Z,108.4
2022-11-03T20:20:01.513Z,102.2
2022-11-03T20:25:01.694Z,95.1
2022-11-03T20:30:01.526Z,88.8
2022-11-03T20:35:01.670Z,84.9
2022-11-03T20:40:07.625Z,80.2
2022-11-03T20:45:01.625Z,83.9
2022-11-03T21:05:01.504Z,71.8
2022-11-03T21:15:01.298Z,70.8
2022-11-03T21:20:02.370Z,70.0
2022-11-03T21:25:01.932Z,70.9
2022-11-03T21:30:01.238Z,70.4
2022-11-03T21:35:01.421Z,71.4
2022-11-03T21:40:01.287Z,73.9
2022-11-03T21:45:03.891Z,76.2
2022-11-03T21:55:01.457Z,82.3
2022-11-03T22:15:02.331Z,71.2
2022-11-03T22:20:01.311Z,67.3
2022-11-03T22:25:02.160Z,68.5
2022-11-03T22:30:01.012Z,69.7
2022-11-03T22:35:01.100Z,70.2
2022-11-03T22:40:01.375Z,69.6
2022-11-03T22:45:01.090Z,72.6
2022-11-03T22:50:04.253Z,71.5
2022-11-03T22:55:02.171Z,71.4
2022-11-03T23:00:01.332Z,70.2
2022-11-03T23:05:01.137Z,68.9
2022-11-03T23:10:01.065Z,65.4
2022-11-03T23:15:01.102Z,65.0
2022-11-03T23:20:01.025Z,63.6
2022-11-03T23:25:01.326Z,63.3
2022-11-03T23:30:01.051Z,70.2
2022-11-03T23:35:01.132Z,72.2
2022-11-03T23:40:01.037Z,73.7
2022-11-03T23:45:02.423Z,74.2
2022-11-03T23:50:01.351Z,74.8
2022-11-03T23:55:01.167Z,68.8
